Time;durP1;ratioP1;P1;durP2;ratioP2;P2;SDS_P1;SDS_P2;PMS_P1;PMS_P2;Temp;Humidity;BMP_temperature;BMP_pressure;BME280_temperature;BME280_humidity;BME280_pressure;Samples;Min_cycle;Max_cycle;Signal;HPM_P1;HPM_P2
2023/05/08 00:00:26;;;;;;;5.72;3.80;;;13.70;99.90;;;;;;5089872;28;20036;-71
2023/05/08 00:02:51;;;;;;;6.90;4.07;;;13.60;99.90;;;;;;5095971;28;20024;-70
2023/05/08 00:05:17;;;;;;;7.35;3.30;;;13.60;99.90;;;;;;5090719;28;20046;-71
2023/05/08 00:07:43;;;;;;;6.00;3.28;;;13.60;99.90;;;;;;5091584;28;20027;-69
2023/05/08 00:10:11;;;;;;;5.72;3.42;;;13.60;99.90;;;;;;5092062;28;20492;-70
2023/05/08 00:12:37;;;;;;;5.90;3.38;;;13.60;99.90;;;;;;5090258;28;20535;-71
2023/05/08 00:15:04;;;;;;;5.60;3.30;;;13.50;99.90;;;;;;5089722;28;20043;-68
2023/05/08 00:17:32;;;;;;;4.85;2.90;;;13.50;99.90;;;;;;5089070;28;20050;-69
2023/05/08 00:19:58;;;;;;;4.63;3.00;;;13.50;99.90;;;;;;5089733;28;20035;-71
2023/05/08 00:22:24;;;;;;;5.63;3.83;;;13.40;99.90;;;;;;5090121;28;20043;-69
2023/05/08 00:24:49;;;;;;;5.22;3.10;;;13.40;99.90;;;;;;5086905;28;20032;-71
2023/05/08 00:27:15;;;;;;;6.15;2.97;;;13.40;99.90;;;;;;5085346;28;20040;-71
2023/05/08 00:29:44;;;;;;;6.65;3.28;;;13.30;99.90;;;;;;5085891;28;20032;-70
2023/05/08 00:32:09;;;;;;;6.13;3.85;;;13.30;99.90;;;;;;5078874;28;20040;-70
2023/05/08 00:34:35;;;;;;;6.95;3.00;;;13.30;99.90;;;;;;5085882;28;20522;-69
2023/05/08 00:37:02;;;;;;;7.03;3.50;;;13.30;99.90;;;;;;5095464;28;20027;-70
2023/05/08 00:39:30;;;;;;;5.25;3.65;;;13.30;99.90;;;;;;5088751;28;20116;-71
2023/05/08 00:41:56;;;;;;;6.63;3.60;;;13.20;99.90;;;;;;5091051;28;20103;-69
2023/05/08 00:44:22;;;;;;;9.57;4.40;;;13.20;99.90;;;;;;5085772;28;20105;-71
2023/05/08 00:46:47;;;;;;;6.85;4.13;;;13.20;99.90;;;;;;5086718;28;20120;-69
2023/05/08 00:49:14;;;;;;;7.63;3.47;;;13.20;99.90;;;;;;5090333;28;20132;-69
2023/05/08 00:51:42;;;;;;;4.90;3.10;;;13.20;99.90;;;;;;5089193;28;20036;-69
2023/05/08 00:54:08;;;;;;;6.00;3.60;;;13.20;99.90;;;;;;5090589;28;20397;-70
2023/05/08 00:56:35;;;;;;;3.72;2.83;;;13.20;99.90;;;;;;5093241;28;20062;-71
2023/05/08 00:59:03;;;;;;;6.00;3.95;;;13.10;99.90;;;;;;5090663;28;20046;-70
2023/05/08 01:01:29;;;;;;;4.10;3.00;;;13.00;99.90;;;;;;5081715;28;20545;-70
2023/05/08 01:03:58;;;;;;;4.40;3.25;;;13.00;99.90;;;;;;5082068;28;20030;-70
2023/05/08 01:06:24;;;;;;;6.25;3.05;;;13.00;99.90;;;;;;5086134;28;20130;-71
2023/05/08 01:08:49;;;;;;;5.95;3.10;;;13.00;99.90;;;;;;5089821;28;20119;-70
2023/05/08 01:11:27;;;;;;;5.55;3.47;;;12.90;99.90;;;;;;5086525;28;20028;-70
2023/05/08 01:14:32;;;;;;;4.20;2.80;;;12.90;99.90;;;;;;5085965;28;20070;-71
2023/05/08 01:17:35;;;;;;;6.18;4.00;;;12.90;99.90;;;;;;5065781;28;20034;-72
2023/05/08 01:20:23;;;;;;;5.32;3.17;;;12.90;99.90;;;;;;5000024;28;20034;-69
2023/05/08 01:23:16;;;;;;;6.70;3.47;;;12.80;99.90;;;;;;5086124;28;20059;-70
2023/05/08 01:26:25;;;;;;;7.47;4.13;;;12.90;99.90;;;;;;5089948;28;20588;-70
2023/05/08 01:29:40;;;;;;;9.35;4.30;;;12.90;99.90;;;;;;5121672;27;20648;-69
2023/05/08 01:32:26;;;;;;;6.10;4.28;;;12.90;99.90;;;;;;5087914;28;20505;-70
2023/05/08 01:35:12;;;;;;;8.48;4.60;;;12.90;99.90;;;;;;5082630;28;20093;-71
2023/05/08 01:37:55;;;;;;;7.32;4.25;;;13.00;99.90;;;;;;5088266;28;20109;-70
2023/05/08 01:40:30;;;;;;;8.57;4.30;;;13.00;99.90;;;;;;5092524;28;20047;-70
2023/05/08 01:43:34;;;;;;;6.82;4.55;;;13.00;99.90;;;;;;5089709;28;20034;-70
2023/05/08 01:46:05;;;;;;;6.88;4.32;;;12.90;99.90;;;;;;5086074;28;20058;-69
2023/05/08 01:48:34;;;;;;;6.88;3.83;;;12.90;99.90;;;;;;5093551;28;20031;-70
2023/05/08 01:51:06;;;;;;;7.78;4.20;;;12.90;99.90;;;;;;5092032;28;20031;-68
2023/05/08 01:53:39;;;;;;;6.68;4.13;;;12.90;99.90;;;;;;5084846;28;20628;-68
2023/05/08 01:56:10;;;;;;;7.38;4.40;;;12.80;99.90;;;;;;5084394;28;20173;-71
2023/05/08 01:58:37;;;;;;;7.35;3.90;;;12.80;99.90;;;;;;5079727;28;20028;-68
2023/05/08 02:01:03;;;;;;;6.93;4.20;;;12.70;99.90;;;;;;5082303;28;20109;-69
2023/05/08 02:03:31;;;;;;;4.93;3.17;;;12.70;99.90;;;;;;5083276;28;20177;-69
2023/05/08 02:05:59;;;;;;;7.43;3.78;;;12.70;99.90;;;;;;5091241;28;20030;-69
2023/05/08 02:08:28;;;;;;;6.45;4.25;;;12.60;99.90;;;;;;5087460;28;20488;-69
2023/05/08 02:10:55;;;;;;;6.40;3.70;;;12.60;99.90;;;;;;5089289;28;20032;-69
2023/05/08 02:13:22;;;;;;;6.57;3.83;;;12.60;99.90;;;;;;5090712;28;20029;-69
2023/05/08 02:15:49;;;;;;;5.50;3.42;;;12.60;99.90;;;;;;5093147;28;20047;-70
2023/05/08 02:18:21;;;;;;;5.57;3.72;;;12.50;99.90;;;;;;5093955;28;20036;-70
2023/05/08 02:20:50;;;;;;;5.72;3.28;;;12.50;99.90;;;;;;5094658;28;20127;-68
2023/05/08 02:23:17;;;;;;;5.95;3.53;;;12.50;99.90;;;;;;5093413;28;20075;-68
2023/05/08 02:25:45;;;;;;;6.25;3.90;;;12.40;99.90;;;;;;5087428;28;20113;-69
2023/05/08 02:28:15;;;;;;;5.97;3.65;;;12.40;99.90;;;;;;5090923;28;20036;-68
2023/05/08 02:30:42;;;;;;;6.45;4.43;;;12.40;99.90;;;;;;5085866;28;20040;-71
2023/05/08 02:33:10;;;;;;;5.25;3.60;;;12.40;99.90;;;;;;5094407;28;20041;-69
2023/05/08 02:35:37;;;;;;;7.63;3.70;;;12.40;99.90;;;;;;5090666;28;20028;-69
2023/05/08 02:38:09;;;;;;;5.28;3.45;;;12.40;99.90;;;;;;5096939;28;20617;-69
2023/05/08 02:40:47;;;;;;;5.53;3.65;;;12.40;99.90;;;;;;5086713;28;20030;-68
2023/05/08 02:43:12;;;;;;;5.70;3.47;;;12.40;99.90;;;;;;5100991;27;20074;-68
2023/05/08 02:46:08;;;;;;;7.45;3.35;;;12.40;99.90;;;;;;5100063;27;20040;-69
2023/05/08 02:49:01;;;;;;;5.82;3.33;;;12.30;99.90;;;;;;5087351;28;20040;-70
2023/05/08 02:51:52;;;;;;;5.07;3.20;;;12.30;99.90;;;;;;5088740;27;20123;-69
2023/05/08 02:54:50;;;;;;;5.03;3.13;;;12.30;99.90;;;;;;5083630;28;20591;-70
2023/05/08 02:57:40;;;;;;;6.10;3.65;;;12.20;99.90;;;;;;5095475;27;20094;-71
2023/05/08 03:00:27;;;;;;;5.47;3.53;;;12.20;99.90;;;;;;5095722;28;20042;-69
2023/05/08 03:03:07;;;;;;;5.32;3.55;;;12.30;99.90;;;;;;5099768;28;20080;-69
2023/05/08 03:05:38;;;;;;;8.00;4.38;;;12.40;99.90;;;;;;5082934;28;20123;-70
2023/05/08 03:08:07;;;;;;;6.38;3.75;;;12.40;99.90;;;;;;5097203;28;20036;-70
2023/05/08 03:10:38;;;;;;;4.93;3.50;;;12.50;99.90;;;;;;5092664;27;20115;-70
2023/05/08 03:13:07;;;;;;;7.00;4.13;;;12.50;99.90;;;;;;5094469;27;20087;-70
2023/05/08 03:15:47;;;;;;;6.87;3.70;;;12.50;99.90;;;;;;5089035;28;20044;-69
2023/05/08 03:18:23;;;;;;;6.07;3.85;;;12.50;99.90;;;;;;5088052;28;20127;-71
2023/05/08 03:20:55;;;;;;;5.35;3.63;;;12.50;99.90;;;;;;5094271;28;20126;-70
2023/05/08 03:23:27;;;;;;;9.13;4.47;;;12.50;99.90;;;;;;5089278;28;20781;-70
2023/05/08 03:25:53;;;;;;;7.90;3.60;;;12.50;99.90;;;;;;5086886;28;20125;-72
2023/05/08 03:28:20;;;;;;;6.68;3.70;;;12.40;99.90;;;;;;5087006;28;20093;-70
2023/05/08 03:30:48;;;;;;;9.60;4.78;;;12.40;99.90;;;;;;5097012;28;20092;-70
2023/05/08 03:33:16;;;;;;;8.32;4.22;;;12.40;99.90;;;;;;5093463;28;20067;-70
2023/05/08 03:35:43;;;;;;;6.75;4.00;;;12.40;99.90;;;;;;5090930;28;20032;-70
2023/05/08 03:38:12;;;;;;;9.10;5.32;;;12.40;99.90;;;;;;5095283;28;20066;-70
2023/05/08 03:40:38;;;;;;;7.20;4.32;;;12.40;99.90;;;;;;5085896;28;20626;-69
2023/05/08 03:43:08;;;;;;;10.18;4.70;;;12.40;99.90;;;;;;5092044;28;20040;-70
2023/05/08 03:45:40;;;;;;;11.40;6.13;;;12.40;99.90;;;;;;5093510;28;20486;-70
2023/05/08 03:48:07;;;;;;;22.13;5.88;;;12.40;99.90;;;;;;5090995;28;20624;-70
2023/05/08 03:50:35;;;;;;;27.90;6.25;;;12.40;99.90;;;;;;5094090;28;20502;-70
2023/05/08 03:53:04;;;;;;;23.65;6.10;;;12.40;99.90;;;;;;5090556;28;20059;-69
2023/05/08 03:55:32;;;;;;;23.38;5.60;;;12.30;99.90;;;;;;5092329;28;20028;-70
2023/05/08 03:58:31;;;;;;;18.38;5.03;;;12.30;99.90;;;;;;5088194;28;20028;-69
2023/05/08 04:01:24;;;;;;;10.30;4.47;;;12.30;99.90;;;;;;5087310;28;20047;-70
2023/05/08 04:04:17;;;;;;;8.77;4.32;;;12.20;99.90;;;;;;5086876;28;20513;-70
2023/05/08 04:06:49;;;;;;;9.57;4.95;;;12.20;99.90;;;;;;5090765;28;20032;-71
2023/05/08 04:09:27;;;;;;;11.48;5.18;;;12.20;99.90;;;;;;5090877;28;20032;-70
2023/05/08 04:12:11;;;;;;;24.98;7.25;;;12.20;99.90;;;;;;5090071;28;20031;-70
2023/05/08 04:15:06;;;;;;;22.30;8.00;;;12.20;99.90;;;;;;5095482;27;20118;-70
2023/05/08 04:17:44;;;;;;;34.08;7.65;;;12.30;99.90;;;;;;5086409;28;20032;-70
2023/05/08 04:20:13;;;;;;;34.67;8.93;;;12.30;99.90;;;;;;5085372;28;20086;-70
2023/05/08 04:22:43;;;;;;;16.58;6.78;;;12.40;99.90;;;;;;5090058;28;20051;-70
2023/05/08 04:25:11;;;;;;;33.65;8.80;;;12.40;99.90;;;;;;5099186;28;20032;-70
2023/05/08 04:27:38;;;;;;;39.45;9.32;;;12.50;99.90;;;;;;5088346;28;20539;-70
2023/05/08 04:30:04;;;;;;;44.40;8.60;;;12.60;99.90;;;;;;5085650;28;20036;-72
2023/05/08 04:32:30;;;;;;;33.15;8.95;;;12.60;99.90;;;;;;5086527;28;20496;-70
2023/05/08 04:34:57;;;;;;;37.35;9.07;;;12.70;99.90;;;;;;5089438;28;20073;-71
2023/05/08 04:37:30;;;;;;;41.88;10.43;;;12.70;99.90;;;;;;5085602;28;20046;-70
2023/05/08 04:39:55;;;;;;;31.33;9.57;;;12.80;99.90;;;;;;5091704;28;20027;-69
2023/05/08 04:42:30;;;;;;;29.67;8.40;;;12.90;99.90;;;;;;5095096;28;20047;-72
2023/05/08 04:44:55;;;;;;;39.92;9.95;;;12.90;99.90;;;;;;5093969;28;20036;-71
2023/05/08 04:47:22;;;;;;;53.97;10.88;;;13.00;99.90;;;;;;5087041;28;20824;-71
2023/05/08 04:49:48;;;;;;;59.15;11.98;;;13.00;99.90;;;;;;5086640;28;20028;-71
2023/05/08 04:52:14;;;;;;;50.60;11.60;;;13.10;99.90;;;;;;5084243;28;20036;-70
2023/05/08 04:54:40;;;;;;;29.75;9.50;;;13.10;99.90;;;;;;5088790;28;20042;-71
2023/05/08 04:57:06;;;;;;;52.97;11.43;;;13.10;99.90;;;;;;5086944;28;20044;-70
2023/05/08 04:59:32;;;;;;;64.32;13.55;;;13.20;99.90;;;;;;5082429;28;20028;-70
2023/05/08 05:02:01;;;;;;;38.50;11.30;;;13.20;99.90;;;;;;5084945;28;20032;-70
2023/05/08 05:04:27;;;;;;;56.67;11.10;;;13.20;99.90;;;;;;5083920;28;20043;-70
2023/05/08 05:06:52;;;;;;;34.13;11.18;;;13.30;99.90;;;;;;5082157;28;20047;-71
2023/05/08 05:09:18;;;;;;;32.63;9.50;;;13.30;99.90;;;;;;5082651;28;20043;-74
2023/05/08 05:11:43;;;;;;;41.53;10.00;;;13.30;99.90;;;;;;5082787;28;20032;-71
2023/05/08 05:14:09;;;;;;;31.52;10.70;;;13.30;99.90;;;;;;5085711;28;20514;-71
2023/05/08 05:16:34;;;;;;;25.50;9.98;;;13.30;99.90;;;;;;5083295;28;20088;-72
2023/05/08 05:19:00;;;;;;;32.75;11.35;;;13.40;99.90;;;;;;5086273;28;20028;-72
2023/05/08 05:21:26;;;;;;;24.83;10.93;;;13.40;99.90;;;;;;5084018;28;20024;-69
2023/05/08 05:23:52;;;;;;;43.85;12.13;;;13.40;99.90;;;;;;5086470;28;20020;-71
2023/05/08 05:26:18;;;;;;;32.72;11.60;;;13.40;99.90;;;;;;5084196;28;20124;-73
2023/05/08 05:28:44;;;;;;;42.00;11.35;;;13.40;99.90;;;;;;5083677;28;20020;-71
2023/05/08 05:31:09;;;;;;;36.35;12.02;;;13.50;99.90;;;;;;5083700;28;20055;-71
2023/05/08 05:33:35;;;;;;;38.20;11.90;;;13.50;99.90;;;;;;5086799;28;20511;-71
2023/05/08 05:36:01;;;;;;;41.67;13.10;;;13.50;99.90;;;;;;5091366;28;20032;-71
2023/05/08 05:38:27;;;;;;;37.03;14.10;;;13.50;99.90;;;;;;5085576;28;20020;-71
2023/05/08 05:40:52;;;;;;;53.60;15.32;;;13.50;99.90;;;;;;5088978;28;20492;-72
2023/05/08 05:43:21;;;;;;;42.40;13.75;;;13.60;99.90;;;;;;5090783;28;20028;-73
2023/05/08 05:45:46;;;;;;;34.45;13.07;;;13.60;99.90;;;;;;5086117;28;20081;-71
2023/05/08 05:48:12;;;;;;;33.47;12.88;;;13.70;99.90;;;;;;5086462;28;20040;-72
2023/05/08 05:50:38;;;;;;;33.63;13.82;;;13.80;99.90;;;;;;5089541;28;20036;-71
2023/05/08 05:53:03;;;;;;;29.73;12.88;;;13.80;99.90;;;;;;5089033;28;20531;-72
2023/05/08 05:55:29;;;;;;;30.85;12.82;;;13.90;99.90;;;;;;5086217;28;20119;-71
2023/05/08 05:57:54;;;;;;;35.25;13.77;;;13.90;99.90;;;;;;5089974;28;20079;-70
2023/05/08 06:00:20;;;;;;;32.25;13.20;;;14.00;99.90;;;;;;5086884;28;20059;-70
2023/05/08 06:02:46;;;;;;;30.40;12.95;;;14.00;99.90;;;;;;5087314;28;20146;-71
2023/05/08 06:05:12;;;;;;;31.95;13.07;;;14.10;99.90;;;;;;5086484;28;20082;-70
2023/05/08 06:07:38;;;;;;;29.58;12.73;;;14.10;99.90;;;;;;5086905;28;20488;-71
2023/05/08 06:10:04;;;;;;;31.70;13.73;;;14.20;99.90;;;;;;5087176;28;20047;-71
2023/05/08 06:12:30;;;;;;;32.00;14.27;;;14.30;99.90;;;;;;5085581;28;20067;-71
2023/05/08 06:14:56;;;;;;;30.95;12.60;;;14.30;99.90;;;;;;5088323;28;20059;-71
2023/05/08 06:17:21;;;;;;;30.10;12.38;;;14.40;99.90;;;;;;5086204;28;20043;-71
2023/05/08 06:19:52;;;;;;;26.40;11.88;;;14.40;99.90;;;;;;5084474;28;20036;-71
2023/05/08 06:22:20;;;;;;;32.88;13.23;;;14.50;99.90;;;;;;5086163;28;20146;-73
2023/05/08 06:24:46;;;;;;;31.65;14.32;;;14.50;99.90;;;;;;5090313;28;20039;-70
2023/05/08 06:27:11;;;;;;;29.83;13.52;;;14.50;99.90;;;;;;5085101;28;20534;-72
2023/05/08 06:29:37;;;;;;;31.05;14.98;;;14.50;99.90;;;;;;5088439;28;20446;-71
2023/05/08 06:32:02;;;;;;;30.52;13.90;;;14.60;99.90;;;;;;5088040;28;20561;-71
2023/05/08 06:34:28;;;;;;;29.02;13.55;;;14.60;99.90;;;;;;5084124;28;20059;-71
2023/05/08 06:36:54;;;;;;;29.63;14.18;;;14.60;99.90;;;;;;5086773;28;20028;-72
2023/05/08 06:39:19;;;;;;;37.05;15.98;;;14.60;99.90;;;;;;5088506;28;20519;-71
2023/05/08 06:41:48;;;;;;;38.70;16.92;;;14.80;99.90;;;;;;5087039;28;20063;-71
2023/05/08 06:44:17;;;;;;;42.85;17.98;;;14.90;99.90;;;;;;5086252;28;20161;-72
2023/05/08 06:46:45;;;;;;;38.85;16.52;;;15.00;99.90;;;;;;5090316;28;20036;-71
2023/05/08 06:49:10;;;;;;;39.58;17.23;;;15.00;99.90;;;;;;5088267;28;20040;-70
2023/05/08 06:51:37;;;;;;;42.33;18.27;;;15.10;99.90;;;;;;5082749;28;20050;-71
2023/05/08 06:54:07;;;;;;;37.85;17.77;;;15.10;99.90;;;;;;5092647;28;20384;-70
2023/05/08 06:56:33;;;;;;;37.92;16.98;;;15.20;99.90;;;;;;5091428;28;20119;-70
2023/05/08 06:58:59;;;;;;;44.00;18.13;;;15.30;99.90;;;;;;5089317;28;20027;-70
2023/05/08 07:01:25;;;;;;;43.33;18.58;;;15.40;99.90;;;;;;5088814;28;20475;-70
2023/05/08 07:03:50;;;;;;;35.42;16.52;;;15.50;99.90;;;;;;5090038;28;20032;-72
2023/05/08 07:06:16;;;;;;;35.72;16.63;;;15.50;99.90;;;;;;5090205;28;20050;-70
2023/05/08 07:08:41;;;;;;;37.72;18.25;;;15.50;99.90;;;;;;5086271;28;20060;-71
2023/05/08 07:11:08;;;;;;;40.90;17.08;;;15.60;99.90;;;;;;5093126;28;20032;-71
2023/05/08 07:13:34;;;;;;;43.80;18.83;;;15.60;99.90;;;;;;5088849;28;20028;-72
2023/05/08 07:16:09;;;;;;;39.92;18.40;;;15.60;99.90;;;;;;5086321;28;20024;-71
2023/05/08 07:18:35;;;;;;;45.17;18.92;;;15.60;99.90;;;;;;5086366;28;20025;-71
2023/05/08 07:21:01;;;;;;;44.10;19.83;;;15.50;99.90;;;;;;5092227;28;20039;-71
2023/05/08 07:23:26;;;;;;;48.03;20.20;;;15.50;99.90;;;;;;5086449;28;20178;-70
2023/05/08 07:25:53;;;;;;;44.50;19.42;;;15.50;99.90;;;;;;5089781;28;20111;-70
2023/05/08 07:28:19;;;;;;;44.85;19.95;;;15.50;99.90;;;;;;5088336;28;20102;-71
2023/05/08 07:30:44;;;;;;;42.95;18.23;;;15.50;99.90;;;;;;5087200;28;20044;-71
2023/05/08 07:33:10;;;;;;;40.53;17.48;;;15.50;99.90;;;;;;5087489;28;20062;-71
2023/05/08 07:35:40;;;;;;;40.35;17.45;;;15.50;99.90;;;;;;5086090;28;20028;-72
2023/05/08 07:38:06;;;;;;;35.80;17.90;;;15.60;99.90;;;;;;5090557;28;20032;-71
2023/05/08 07:40:32;;;;;;;37.42;18.55;;;15.60;99.90;;;;;;5085094;28;20036;-71
2023/05/08 07:42:57;;;;;;;39.38;18.02;;;15.50;99.90;;;;;;5089779;28;20066;-71
2023/05/08 07:45:29;;;;;;;42.90;18.73;;;15.60;99.90;;;;;;5087414;28;20044;-73
2023/05/08 07:47:57;;;;;;;37.33;17.35;;;15.70;99.90;;;;;;5086973;28;20088;-70
2023/05/08 07:50:24;;;;;;;38.25;17.92;;;15.80;99.90;;;;;;5087957;28;20052;-71
2023/05/08 07:52:50;;;;;;;40.95;18.48;;;15.90;99.90;;;;;;5087993;28;20050;-71
2023/05/08 07:55:17;;;;;;;39.45;18.63;;;16.00;99.90;;;;;;5090666;28;20138;-72
2023/05/08 07:57:43;;;;;;;40.25;17.75;;;16.10;99.90;;;;;;5083376;28;20047;-71
2023/05/08 08:00:11;;;;;;;35.58;17.15;;;16.20;99.90;;;;;;5085510;28;20595;-71
2023/05/08 08:02:37;;;;;;;36.60;17.58;;;16.20;99.90;;;;;;5087354;28;20051;-71
2023/05/08 08:05:03;;;;;;;40.60;17.65;;;16.40;99.90;;;;;;5084848;28;20028;-71
2023/05/08 08:07:32;;;;;;;39.50;17.73;;;16.50;99.90;;;;;;5086262;28;20101;-71
2023/05/08 08:09:58;;;;;;;35.75;17.60;;;16.80;99.90;;;;;;5084560;28;20085;-71
2023/05/08 08:12:24;;;;;;;34.22;16.52;;;17.10;99.90;;;;;;5085353;28;20046;-74
2023/05/08 08:14:50;;;;;;;36.17;16.77;;;17.50;99.90;;;;;;5089492;28;20040;-71
2023/05/08 08:17:15;;;;;;;38.67;17.67;;;17.70;99.90;;;;;;5086062;28;20064;-70
2023/05/08 08:19:41;;;;;;;37.10;17.17;;;17.80;99.90;;;;;;5089542;28;20066;-70
2023/05/08 08:22:07;;;;;;;37.42;18.10;;;18.00;99.90;;;;;;5089595;28;20055;-70
2023/05/08 08:24:32;;;;;;;39.70;18.77;;;18.00;99.90;;;;;;5088835;28;20311;-72
2023/05/08 08:26:58;;;;;;;44.50;20.25;;;17.90;99.90;;;;;;5088489;28;20036;-71
2023/05/08 08:29:23;;;;;;;42.00;19.83;;;17.90;99.90;;;;;;5083056;28;20032;-72
2023/05/08 08:31:49;;;;;;;42.55;20.25;;;17.70;99.90;;;;;;5089689;28;20060;-72
2023/05/08 08:34:15;;;;;;;43.45;19.95;;;17.70;99.90;;;;;;5090417;28;20118;-72
2023/05/08 08:36:40;;;;;;;48.83;21.60;;;17.70;99.90;;;;;;5084720;28;20036;-71
2023/05/08 08:39:09;;;;;;;50.03;21.80;;;17.70;99.90;;;;;;5091875;28;20475;-72
2023/05/08 08:41:35;;;;;;;49.65;21.95;;;17.60;99.90;;;;;;5087373;28;20503;-72
2023/05/08 08:44:00;;;;;;;51.15;20.67;;;17.60;99.90;;;;;;5088461;28;20032;-71
2023/05/08 08:46:27;;;;;;;56.00;22.25;;;17.60;99.90;;;;;;5086448;28;20036;-72
2023/05/08 08:49:02;;;;;;;52.28;21.88;;;17.60;99.90;;;;;;5089942;28;20111;-72
2023/05/08 08:51:35;;;;;;;46.92;21.65;;;17.70;99.90;;;;;;5085239;28;20032;-72
2023/05/08 08:54:09;;;;;;;48.00;21.70;;;17.70;99.90;;;;;;5088569;28;20101;-71
2023/05/08 08:56:38;;;;;;;50.45;21.10;;;17.70;99.90;;;;;;5090353;28;20032;-72
2023/05/08 08:59:04;;;;;;;51.38;21.70;;;17.70;99.90;;;;;;5090815;28;20047;-71
2023/05/08 09:01:34;;;;;;;45.10;20.05;;;17.60;99.90;;;;;;5085839;28;20858;-71
2023/05/08 09:04:01;;;;;;;51.90;21.70;;;17.60;99.90;;;;;;5089317;28;20035;-71
2023/05/08 09:06:35;;;;;;;50.63;21.75;;;17.60;99.90;;;;;;5086824;28;20625;-71
2023/05/08 09:09:04;;;;;;;49.70;22.15;;;17.60;99.90;;;;;;5088623;28;20048;-72
2023/05/08 09:11:30;;;;;;;50.38;21.83;;;17.50;99.90;;;;;;5084491;28;20050;-72
2023/05/08 09:13:56;;;;;;;57.08;22.60;;;17.60;99.90;;;;;;5087809;28;20024;-72
2023/05/08 09:16:23;;;;;;;52.05;22.83;;;17.50;99.90;;;;;;5084531;28;20041;-71
2023/05/08 09:18:48;;;;;;;52.58;23.45;;;17.50;99.90;;;;;;5085179;28;20028;-71
2023/05/08 09:21:14;;;;;;;46.58;20.55;;;17.60;99.90;;;;;;5087571;28;20048;-72
2023/05/08 09:23:58;;;;;;;51.90;22.88;;;17.50;99.90;;;;;;5084578;28;20113;-72
2023/05/08 09:26:36;;;;;;;52.70;22.67;;;17.70;99.90;;;;;;5082505;28;20048;-73
2023/05/08 09:29:12;;;;;;;46.92;21.90;;;17.60;99.90;;;;;;5084475;28;20568;-71
2023/05/08 09:31:42;;;;;;;51.25;23.40;;;17.70;99.90;;;;;;5086211;28;20036;-71
2023/05/08 09:34:09;;;;;;;;;;;17.70;99.90;;;;;;5088279;28;20479;-72
2023/05/08 09:36:44;;;;;;;50.97;22.75;;;17.80;99.90;;;;;;5082206;28;20442;-72
2023/05/08 09:39:22;;;;;;;58.00;24.23;;;17.80;99.90;;;;;;5081732;28;20071;-72
2023/05/08 09:42:00;;;;;;;52.78;21.92;;;17.90;99.90;;;;;;5086692;28;20173;-72
2023/05/08 09:44:26;;;;;;;48.25;22.85;;;17.90;99.90;;;;;;5083652;28;20032;-71
2023/05/08 09:47:15;;;;;;;62.13;24.55;;;18.00;99.90;;;;;;5085031;28;20518;-72
2023/05/08 09:50:03;;;;;;;54.30;24.60;;;18.00;99.90;;;;;;5082240;28;20395;-72
2023/05/08 09:52:30;;;;;;;49.05;24.35;;;18.20;99.90;;;;;;5086397;28;20024;-72
2023/05/08 09:55:07;;;;;;;54.33;25.52;;;18.40;99.90;;;;;;5089590;28;20036;-72
2023/05/08 09:57:37;;;;;;;47.78;23.48;;;18.50;99.90;;;;;;5082611;28;20032;-71
2023/05/08 10:00:16;;;;;;;46.10;21.43;;;18.60;99.90;;;;;;5085530;28;20039;-72
2023/05/08 10:02:58;;;;;;;50.33;23.42;;;18.60;99.90;;;;;;5085600;28;20036;-71
2023/05/08 10:05:31;;;;;;;47.80;22.48;;;18.70;99.90;;;;;;5083309;28;20082;-72
2023/05/08 10:08:19;;;;;;;45.30;23.08;;;18.70;99.90;;;;;;5087548;28;20040;-72
2023/05/08 10:10:48;;;;;;;46.97;23.40;;;18.80;99.90;;;;;;5081184;28;20032;-72
2023/05/08 10:13:14;;;;;;;48.47;22.48;;;18.90;99.90;;;;;;5086052;28;20832;-72
2023/05/08 10:15:42;;;;;;;45.92;21.90;;;19.00;99.90;;;;;;5080661;28;20039;-72
2023/05/08 10:18:09;;;;;;;43.92;20.33;;;19.00;99.90;;;;;;5086123;28;20407;-71
2023/05/08 10:20:38;;;;;;;44.13;21.58;;;19.10;99.90;;;;;;5084939;28;20040;-71
2023/05/08 10:23:10;;;;;;;43.00;21.02;;;19.30;99.90;;;;;;5086170;28;20031;-71
2023/05/08 10:25:43;;;;;;;49.83;23.35;;;19.40;99.90;;;;;;5079138;28;20040;-71
2023/05/08 10:28:47;;;;;;;46.72;22.52;;;19.50;99.90;;;;;;5083354;28;20550;-71
2023/05/08 10:31:17;;;;;;;48.08;21.60;;;19.50;99.90;;;;;;5007514;28;20034;-71
2023/05/08 10:33:45;;;;;;;42.90;20.47;;;19.70;99.90;;;;;;4986400;28;20736;-71
2023/05/08 10:36:12;;;;;;;42.75;21.33;;;19.80;99.90;;;;;;5044608;28;20285;-71
2023/05/08 10:38:40;;;;;;;44.60;20.02;;;20.00;99.90;;;;;;5081373;28;20028;-71
2023/05/08 10:41:05;;;;;;;45.05;22.60;;;20.00;99.90;;;;;;5086530;28;20059;-71
2023/05/08 10:43:32;;;;;;;38.83;19.48;;;20.00;99.90;;;;;;5085936;28;20090;-71
2023/05/08 10:46:03;;;;;;;42.50;20.70;;;20.10;99.90;;;;;;5085942;28;20039;-72
2023/05/08 10:48:44;;;;;;;47.60;20.25;;;20.10;99.90;;;;;;5083340;28;20036;-71
2023/05/08 10:51:15;;;;;;;;;;;20.10;99.90;;;;;;5083878;28;20044;-71
2023/05/08 10:54:05;;;;;;;44.83;20.38;;;20.00;99.90;;;;;;5084024;28;19938;-71
2023/05/08 10:56:31;;;;;;;39.60;19.40;;;20.10;99.90;;;;;;5088381;28;20043;-70
2023/05/08 10:58:57;;;;;;;39.03;18.92;;;20.20;99.90;;;;;;5088016;28;20129;-71
2023/05/08 11:01:23;;;;;;;42.25;19.77;;;20.20;99.90;;;;;;5089892;28;20520;-71
2023/05/08 11:03:49;;;;;;;40.95;18.85;;;20.10;99.90;;;;;;5087658;28;20036;-71
2023/05/08 11:06:16;;;;;;;39.72;19.27;;;20.00;99.90;;;;;;5091504;27;20040;-72
2023/05/08 11:08:49;;;;;;;42.38;19.83;;;20.00;99.90;;;;;;5091664;28;20032;-70
2023/05/08 11:11:26;;;;;;;42.13;19.20;;;20.00;99.90;;;;;;5089787;28;20050;-71
2023/05/08 11:14:07;;;;;;;39.22;18.98;;;20.10;99.90;;;;;;5088052;28;22484;-70
2023/05/08 11:16:55;;;;;;;42.60;18.20;;;20.30;99.90;;;;;;5088201;28;20480;-70
2023/05/08 11:19:22;;;;;;;33.92;17.08;;;20.50;99.90;;;;;;5090933;28;20058;-73
2023/05/08 11:22:11;;;;;;;34.60;16.27;;;20.50;99.90;;;;;;5093443;28;20466;-72
2023/05/08 11:24:38;;;;;;;31.08;16.27;;;20.40;99.90;;;;;;5087842;28;20015;-74
2023/05/08 11:27:04;;;;;;;33.17;15.88;;;20.20;99.90;;;;;;5090429;28;20032;-71
2023/05/08 11:29:30;;;;;;;34.53;15.85;;;20.00;99.90;;;;;;5091164;28;20038;-71
2023/05/08 11:31:56;;;;;;;35.88;17.05;;;19.90;99.90;;;;;;5090475;28;20360;-71
2023/05/08 11:34:44;;;;;;;33.90;15.48;;;19.80;99.90;;;;;;5089738;28;20157;-72
2023/05/08 11:37:17;;;;;;;28.45;13.85;;;19.90;99.90;;;;;;5089933;28;20024;-71
2023/05/08 11:39:47;;;;;;;29.25;14.13;;;20.00;99.90;;;;;;5088409;28;20036;-70
2023/05/08 11:42:24;;;;;;;33.72;14.77;;;20.00;99.90;;;;;;5090950;28;20028;-70
2023/05/08 11:45:13;;;;;;;31.10;14.65;;;20.10;99.90;;;;;;5087931;28;20036;-71
2023/05/08 11:47:40;;;;;;;28.63;13.07;;;20.40;99.90;;;;;;5106072;27;20556;-70
2023/05/08 11:50:10;;;;;;;33.53;13.45;;;20.60;99.90;;;;;;5092992;28;20052;-72
2023/05/08 11:52:38;;;;;;;29.85;13.50;;;20.80;99.90;;;;;;5089170;28;20092;-70
2023/05/08 11:55:06;;;;;;;28.30;13.27;;;20.90;99.90;;;;;;5089992;28;20464;-71
2023/05/08 11:57:32;;;;;;;26.23;12.77;;;21.00;99.90;;;;;;5090390;28;20487;-72
2023/05/08 12:00:07;;;;;;;26.50;12.88;;;21.20;99.90;;;;;;5090660;28;20039;-71
2023/05/08 12:02:40;;;;;;;27.48;14.10;;;21.40;99.90;;;;;;5083114;28;20054;-71
2023/05/08 12:05:12;;;;;;;25.38;12.57;;;21.60;99.90;;;;;;5091316;28;20456;-70
2023/05/08 12:07:47;;;;;;;29.25;13.00;;;21.70;99.90;;;;;;5091352;27;20044;-71
2023/05/08 12:10:13;;;;;;;32.42;12.80;;;21.80;99.90;;;;;;5090799;28;20031;-70
2023/05/08 12:12:40;;;;;;;26.10;12.50;;;21.70;99.90;;;;;;5090878;28;20061;-70
2023/05/08 12:15:10;;;;;;;28.38;13.48;;;21.60;99.90;;;;;;5092420;28;20122;-71
2023/05/08 12:17:36;;;;;;;;;;;21.50;99.90;;;;;;5091012;28;20024;-71
2023/05/08 12:20:13;;;;;;;24.88;11.98;;;21.30;99.90;;;;;;5088224;28;19983;-70
2023/05/08 12:22:48;;;;;;;23.42;11.23;;;21.40;99.90;;;;;;5091714;28;20040;-71
2023/05/08 12:25:19;;;;;;;28.23;12.20;;;21.40;99.90;;;;;;5092747;28;20077;-71
2023/05/08 12:27:48;;;;;;;25.92;12.68;;;21.50;99.90;;;;;;5086331;28;20135;-71
2023/05/08 12:30:14;;;;;;;25.95;12.63;;;21.70;99.90;;;;;;5088018;28;20040;-71
2023/05/08 12:32:41;;;;;;;21.25;11.43;;;21.80;99.90;;;;;;5088608;28;20503;-71
2023/05/08 12:35:08;;;;;;;22.63;10.70;;;21.90;99.90;;;;;;5089372;28;20028;-71
2023/05/08 12:37:34;;;;;;;21.60;10.77;;;22.00;99.90;;;;;;5086463;28;20036;-71
2023/05/08 12:40:04;;;;;;;19.10;9.80;;;22.00;99.90;;;;;;5093571;28;20097;-71
2023/05/08 12:42:47;;;;;;;19.38;9.63;;;21.90;99.90;;;;;;5086894;28;20067;-71
2023/05/08 12:45:17;;;;;;;22.85;11.32;;;21.80;99.90;;;;;;5087667;28;20080;-71
2023/05/08 12:47:50;;;;;;;22.92;12.15;;;21.60;99.90;;;;;;5088885;28;20042;-71
2023/05/08 12:50:19;;;;;;;19.80;9.98;;;21.70;99.90;;;;;;5090591;28;20050;-72
2023/05/08 12:52:45;;;;;;;21.70;10.02;;;21.50;99.90;;;;;;5086860;28;20111;-71